Time;durP1;ratioP1;P1;durP2;ratioP2;P2;SDS_P1;SDS_P2;PMS_P1;PMS_P2;Temp;Humidity;BMP_temperature;BMP_pressure;BME280_temperature;BME280_humidity;BME280_pressure;Samples;Min_cycle;Max_cycle;Signal;HPM_P1;HPM_P2
2022/09/14 00:00:32;;;;;;;5.27;2.90;;;14.80;1.00;;;;;;6277813;28;20232;-55
2022/09/14 00:03:35;;;;;;;7.70;3.67;;;14.80;1.00;;;;;;6286607;28;20236;-55
2022/09/14 00:06:39;;;;;;;5.27;3.10;;;14.80;1.00;;;;;;6315729;28;20244;-56
2022/09/14 00:09:43;;;;;;;7.77;3.20;;;14.80;1.00;;;;;;6313787;28;20240;-56
2022/09/14 00:12:46;;;;;;;4.37;3.00;;;14.80;1.00;;;;;;6265369;28;20233;-55
2022/09/14 00:15:50;;;;;;;6.27;3.40;;;14.80;1.00;;;;;;6289503;28;20237;-55
2022/09/14 00:18:56;;;;;;;3.57;3.10;;;14.80;1.00;;;;;;6286568;28;20248;-56
2022/09/14 00:21:59;;;;;;;4.60;2.70;;;14.80;1.00;;;;;;6273028;28;20241;-55
2022/09/14 00:25:04;;;;;;;6.30;3.40;;;14.70;1.00;;;;;;6287771;28;20232;-56
2022/09/14 00:28:07;;;;;;;4.63;2.90;;;14.70;1.00;;;;;;6286069;28;20237;-55
2022/09/14 00:31:10;;;;;;;6.13;3.53;;;14.70;1.00;;;;;;6261583;28;20760;-55
2022/09/14 00:34:15;;;;;;;4.53;2.80;;;14.70;1.00;;;;;;6286256;28;20228;-56
2022/09/14 00:37:18;;;;;;;6.00;2.80;;;14.70;1.00;;;;;;6290464;28;20233;-55
2022/09/14 00:40:22;;;;;;;3.43;2.40;;;14.60;1.00;;;;;;6287163;28;20722;-55
2022/09/14 00:43:25;;;;;;;4.50;2.97;;;14.60;1.00;;;;;;6280425;28;20230;-55
2022/09/14 00:46:31;;;;;;;6.93;2.77;;;14.50;1.00;;;;;;6283300;28;20241;-55
2022/09/14 00:49:37;;;;;;;3.17;2.87;;;14.50;1.00;;;;;;6279427;28;20747;-55
2022/09/14 00:52:44;;;;;;;3.57;2.70;;;14.50;1.00;;;;;;6286112;28;20272;-55
2022/09/14 00:55:52;;;;;;;6.00;3.03;;;14.50;1.00;;;;;;6280189;28;20261;-55
2022/09/14 00:58:58;;;;;;;5.80;2.90;;;14.50;1.00;;;;;;6260542;28;20234;-56
2022/09/14 01:02:01;;;;;;;4.40;2.67;;;14.50;1.00;;;;;;6261536;28;20321;-57
2022/09/14 01:05:05;;;;;;;2.80;2.70;;;14.40;1.00;;;;;;6293140;28;20233;-55
2022/09/14 01:08:18;;;;;;;2.83;2.60;;;14.40;1.00;;;;;;6290732;28;20234;-56
2022/09/14 01:11:47;;;;;;;3.33;2.60;;;14.30;1.00;;;;;;6261301;28;20245;-56
2022/09/14 01:15:03;;;;;;;3.10;2.80;;;14.30;1.00;;;;;;6261050;28;20563;-56
2022/09/14 01:18:14;;;;;;;2.90;2.70;;;14.30;1.00;;;;;;6262174;28;20234;-55
2022/09/14 01:21:24;;;;;;;2.83;2.50;;;14.20;1.00;;;;;;6289422;28;20225;-55
2022/09/14 01:24:36;;;;;;;5.73;3.50;;;14.30;1.00;;;;;;6286672;28;20756;-54
2022/09/14 01:27:43;;;;;;;3.63;2.90;;;14.20;1.00;;;;;;6261733;28;20234;-54
2022/09/14 01:30:47;;;;;;;3.17;2.73;;;14.20;1.00;;;;;;6260756;28;20753;-55
2022/09/14 01:33:55;;;;;;;3.53;2.60;;;14.20;1.00;;;;;;6279349;28;20506;-55
2022/09/14 01:37:03;;;;;;;3.60;2.83;;;14.20;1.00;;;;;;6294079;28;20616;-56
2022/09/14 01:40:13;;;;;;;3.13;2.90;;;14.10;1.00;;;;;;6310414;28;20244;-55
2022/09/14 01:43:21;;;;;;;2.87;2.67;;;14.10;1.00;;;;;;6287581;28;20365;-55
2022/09/14 01:46:28;;;;;;;4.87;2.83;;;14.00;1.00;;;;;;6259667;28;20237;-55
2022/09/14 01:49:37;;;;;;;7.87;3.40;;;14.00;1.00;;;;;;6272370;28;20253;-55
2022/09/14 01:52:44;;;;;;;4.83;3.23;;;14.00;1.00;;;;;;6281370;28;20241;-55
2022/09/14 01:55:56;;;;;;;3.30;3.00;;;14.00;1.00;;;;;;6285751;28;20264;-55
2022/09/14 01:59:05;;;;;;;6.50;3.37;;;14.00;1.00;;;;;;6257201;28;20504;-55
2022/09/14 02:02:12;;;;;;;8.20;3.40;;;13.90;1.00;;;;;;6283220;28;20876;-55
2022/09/14 02:05:20;;;;;;;4.03;3.50;;;13.90;1.00;;;;;;6282187;28;20301;-58
2022/09/14 02:08:24;;;;;;;5.60;3.30;;;13.90;1.00;;;;;;6300878;28;20225;-56
2022/09/14 02:11:27;;;;;;;3.50;3.23;;;13.80;1.00;;;;;;6260414;28;20261;-57
2022/09/14 02:14:32;;;;;;;5.50;3.37;;;13.80;1.00;;;;;;6254742;28;20242;-55
2022/09/14 02:17:35;;;;;;;6.07;3.60;;;13.90;1.00;;;;;;6259458;28;20864;-55
2022/09/14 02:20:44;;;;;;;4.77;3.50;;;13.80;1.00;;;;;;6281858;28;20248;-55
2022/09/14 02:23:48;;;;;;;8.00;3.53;;;13.80;1.00;;;;;;6283963;28;20248;-55
2022/09/14 02:26:53;;;;;;;3.53;3.00;;;13.80;1.00;;;;;;6284129;28;20852;-54
2022/09/14 02:29:57;;;;;;;8.10;3.33;;;13.80;1.00;;;;;;6284597;28;20229;-55
2022/09/14 02:33:07;;;;;;;8.30;3.53;;;13.80;1.00;;;;;;6285540;28;20241;-55
2022/09/14 02:36:17;;;;;;;3.80;3.17;;;13.70;1.00;;;;;;6275586;28;20635;-56
2022/09/14 02:39:26;;;;;;;4.57;3.40;;;13.70;1.00;;;;;;6272498;28;20245;-55
2022/09/14 02:42:36;;;;;;;5.40;3.20;;;13.70;1.00;;;;;;6261495;28;20245;-55
2022/09/14 02:45:48;;;;;;;5.43;3.13;;;13.70;1.00;;;;;;6275997;28;20744;-56
2022/09/14 02:48:57;;;;;;;4.07;3.53;;;13.70;1.00;;;;;;6281574;28;20240;-59
2022/09/14 02:52:07;;;;;;;3.43;2.93;;;13.60;1.00;;;;;;6276189;28;20372;-55
2022/09/14 02:55:14;;;;;;;4.10;3.53;;;13.60;1.00;;;;;;6283358;28;20243;-55
2022/09/14 02:58:17;;;;;;;3.73;3.27;;;13.60;1.00;;;;;;6264794;28;20241;-56
2022/09/14 03:01:23;;;;;;;3.20;2.93;;;13.60;1.00;;;;;;6258086;28;20667;-54
2022/09/14 03:04:26;;;;;;;7.67;3.90;;;13.60;1.00;;;;;;6282797;28;20225;-54
2022/09/14 03:07:29;;;;;;;8.07;3.50;;;13.60;1.00;;;;;;6299337;28;20237;-54
2022/09/14 03:10:33;;;;;;;4.00;3.67;;;13.50;1.00;;;;;;6258674;28;20300;-55
2022/09/14 03:13:37;;;;;;;11.83;3.90;;;13.50;1.00;;;;;;6258708;28;20237;-55
2022/09/14 03:16:41;;;;;;;3.67;3.47;;;13.50;1.00;;;;;;6258398;28;20230;-57
2022/09/14 03:19:44;;;;;;;5.37;3.40;;;13.50;1.00;;;;;;6279859;28;20240;-55
2022/09/14 03:22:47;;;;;;;3.13;2.83;;;13.50;1.00;;;;;;6286173;28;20819;-55
2022/09/14 03:25:50;;;;;;;9.60;4.00;;;13.50;1.00;;;;;;6288841;28;20236;-55
2022/09/14 03:28:55;;;;;;;8.00;4.20;;;13.50;1.00;;;;;;6287719;28;20233;-55
2022/09/14 03:31:59;;;;;;;3.83;3.47;;;13.50;1.00;;;;;;6272341;28;20248;-55
2022/09/14 03:35:02;;;;;;;7.27;3.23;;;13.50;1.00;;;;;;6295937;28;20233;-59
2022/09/14 03:38:05;;;;;;;3.30;3.20;;;13.50;1.00;;;;;;6281977;28;20694;-55
2022/09/14 03:41:08;;;;;;;4.17;3.60;;;13.50;1.00;;;;;;6286917;28;20348;-55
2022/09/14 03:44:11;;;;;;;6.67;3.57;;;13.50;1.00;;;;;;6282838;28;20236;-55
2022/09/14 03:47:16;;;;;;;3.80;3.30;;;13.50;1.00;;;;;;6284997;28;20722;-55
2022/09/14 03:50:19;;;;;;;8.20;3.50;;;13.50;1.00;;;;;;6287847;28;20792;-55
2022/09/14 03:53:22;;;;;;;6.60;3.50;;;13.50;1.00;;;;;;6283403;28;20237;-55
2022/09/14 03:56:25;;;;;;;6.80;3.73;;;13.50;1.00;;;;;;6279188;28;20226;-54
2022/09/14 03:59:28;;;;;;;4.70;3.50;;;13.50;1.00;;;;;;6274434;28;20395;-55
2022/09/14 04:02:32;;;;;;;11.30;4.20;;;13.50;1.00;;;;;;6275807;28;20248;-55
2022/09/14 04:05:35;;;;;;;8.40;3.87;;;13.40;1.00;;;;;;6282344;28;20245;-55
2022/09/14 04:08:40;;;;;;;7.03;4.00;;;13.40;1.00;;;;;;6280178;28;20248;-55
2022/09/14 04:11:43;;;;;;;4.20;3.50;;;13.40;1.00;;;;;;6284010;28;20237;-56
2022/09/14 04:14:46;;;;;;;5.13;3.40;;;13.40;1.00;;;;;;6295150;28;20728;-59
2022/09/14 04:17:51;;;;;;;7.33;3.83;;;13.40;1.00;;;;;;6285605;28;20237;-56
2022/09/14 04:20:56;;;;;;;3.80;3.50;;;13.30;1.00;;;;;;6296551;28;20247;-55
2022/09/14 04:23:59;;;;;;;6.57;3.83;;;13.30;1.00;;;;;;6281403;28;20237;-55
2022/09/14 04:27:17;;;;;;;3.93;3.63;;;13.30;1.00;;;;;;6294838;28;20461;-55
2022/09/14 04:30:20;;;;;;;5.37;3.97;;;13.30;1.00;;;;;;6288181;28;20229;-55
2022/09/14 04:33:25;;;;;;;6.17;4.00;;;13.30;1.00;;;;;;6287064;28;20230;-56
2022/09/14 04:36:29;;;;;;;4.20;3.80;;;13.30;1.00;;;;;;6283616;28;20245;-56
2022/09/14 04:39:33;;;;;;;4.30;4.00;;;13.30;1.00;;;;;;6294756;28;20237;-56
2022/09/14 04:42:35;;;;;;;4.20;3.40;;;13.30;1.00;;;;;;6297225;28;20526;-56
2022/09/14 04:45:39;;;;;;;3.30;3.17;;;13.30;1.00;;;;;;6289497;28;20434;-62
2022/09/14 04:48:44;;;;;;;4.37;3.73;;;13.30;1.00;;;;;;6297646;28;20244;-56
2022/09/14 04:51:47;;;;;;;6.37;3.83;;;13.30;1.00;;;;;;6302083;28;20235;-56
2022/09/14 04:54:50;;;;;;;4.03;3.63;;;13.40;1.00;;;;;;6283323;28;20244;-55
2022/09/14 04:57:53;;;;;;;6.10;4.00;;;13.40;1.00;;;;;;6292044;28;20248;-55
2022/09/14 05:01:00;;;;;;;4.40;4.00;;;13.40;1.00;;;;;;6292699;28;20260;-55
2022/09/14 05:04:05;;;;;;;3.77;3.47;;;13.40;1.00;;;;;;6293157;28;20232;-55
2022/09/14 05:07:08;;;;;;;4.27;3.90;;;13.50;1.00;;;;;;6295013;28;20232;-55
2022/09/14 05:10:11;;;;;;;5.87;3.40;;;13.50;1.00;;;;;;6255216;28;20248;-56
2022/09/14 05:13:15;;;;;;;3.83;3.50;;;13.50;1.00;;;;;;6262577;28;20246;-55
2022/09/14 05:16:20;;;;;;;4.03;3.30;;;13.50;1.00;;;;;;6288406;28;20484;-55
2022/09/14 05:19:24;;;;;;;4.17;3.57;;;13.50;1.00;;;;;;6277725;28;20705;-55
2022/09/14 05:22:27;;;;;;;6.13;4.07;;;13.50;1.00;;;;;;6294375;28;20233;-55
2022/09/14 05:25:30;;;;;;;3.93;3.63;;;13.60;1.00;;;;;;6283493;28;20230;-55
2022/09/14 05:28:34;;;;;;;12.30;4.03;;;13.60;1.00;;;;;;6294161;28;20233;-55
2022/09/14 05:31:38;;;;;;;4.57;3.73;;;13.60;1.00;;;;;;6294064;28;20233;-55
2022/09/14 05:34:42;;;;;;;5.73;3.70;;;13.70;1.00;;;;;;6290200;28;20233;-55
2022/09/14 05:37:45;;;;;;;8.57;4.03;;;13.70;1.00;;;;;;6283634;28;20252;-55
2022/09/14 05:40:48;;;;;;;5.80;3.50;;;13.80;1.00;;;;;;6290738;28;20233;-56
2022/09/14 05:43:51;;;;;;;4.13;3.73;;;13.80;1.00;;;;;;6282256;28;20242;-56
2022/09/14 05:46:53;;;;;;;3.97;3.53;;;13.80;1.00;;;;;;6288106;28;20345;-54
2022/09/14 05:49:58;;;;;;;4.77;4.10;;;13.90;1.00;;;;;;6298351;28;20236;-55
2022/09/14 05:53:01;;;;;;;4.10;3.90;;;13.90;1.00;;;;;;6294178;28;20236;-55
2022/09/14 05:56:06;;;;;;;8.30;4.07;;;13.90;1.00;;;;;;6289735;28;20244;-55
2022/09/14 05:59:09;;;;;;;5.27;3.70;;;13.90;1.00;;;;;;6279644;28;20233;-57
2022/09/14 06:02:12;;;;;;;6.53;3.90;;;14.00;1.00;;;;;;6279709;28;20572;-55
2022/09/14 06:05:24;;;;;;;6.83;4.07;;;14.10;1.00;;;;;;6287490;28;20296;-55
2022/09/14 06:08:27;;;;;;;4.13;3.77;;;14.10;1.00;;;;;;6284678;28;20225;-55
2022/09/14 06:11:32;;;;;;;5.73;3.63;;;14.20;1.00;;;;;;6285011;28;20732;-57
2022/09/14 06:14:35;;;;;;;7.93;3.80;;;14.20;1.00;;;;;;6296180;28;20732;-56
2022/09/14 06:17:38;;;;;;;3.73;3.40;;;14.20;1.00;;;;;;6295698;28;20237;-55
2022/09/14 06:20:51;;;;;;;6.10;3.70;;;14.30;1.00;;;;;;6282103;28;20612;-55
2022/09/14 06:23:54;;;;;;;6.97;3.60;;;14.40;1.00;;;;;;6297972;28;20318;-55
2022/09/14 06:26:57;;;;;;;6.97;3.50;;;14.40;1.00;;;;;;6279886;28;20233;-54
2022/09/14 06:30:00;;;;;;;9.10;3.70;;;14.50;1.00;;;;;;6278381;28;20233;-55
2022/09/14 06:33:05;;;;;;;4.73;3.67;;;14.60;1.00;;;;;;6284079;28;20240;-55
2022/09/14 06:36:12;;;;;;;9.87;3.67;;;14.70;1.00;;;;;;6288011;28;20509;-55
2022/09/14 06:39:15;;;;;;;6.60;3.57;;;14.70;1.00;;;;;;6288807;28;20237;-55
2022/09/14 06:42:18;;;;;;;5.17;3.50;;;14.80;1.00;;;;;;6289329;28;20233;-55
2022/09/14 06:45:21;;;;;;;14.57;3.90;;;14.90;1.00;;;;;;6280509;28;20609;-55
2022/09/14 06:48:24;;;;;;;4.63;3.60;;;14.90;1.00;;;;;;6287555;28;20236;-56
2022/09/14 06:51:30;;;;;;;10.60;3.77;;;15.00;1.00;;;;;;6283967;28;20229;-55
2022/09/14 06:54:32;;;;;;;8.77;4.00;;;15.10;1.00;;;;;;6289221;28;20753;-55
2022/09/14 06:57:36;;;;;;;6.60;3.50;;;15.10;1.00;;;;;;6291403;28;20595;-55
2022/09/14 07:00:44;;;;;;;4.93;3.30;;;15.20;1.00;;;;;;6288516;28;20360;-54
2022/09/14 07:03:50;;;;;;;4.73;3.20;;;15.30;1.00;;;;;;6288750;28;20235;-56
2022/09/14 07:06:54;;;;;;;6.73;3.37;;;15.40;1.00;;;;;;6279711;28;20632;-55
2022/09/14 07:09:57;;;;;;;5.83;3.30;;;15.60;1.00;;;;;;6267579;28;20736;-56
2022/09/14 07:13:00;;;;;;;4.50;3.50;;;15.80;1.00;;;;;;6286277;28;20237;-55
2022/09/14 07:16:04;;;;;;;6.20;3.40;;;16.00;1.00;;;;;;6281076;28;20241;-55
2022/09/14 07:19:11;;;;;;;3.67;3.37;;;16.00;1.00;;;;;;6284242;28;20244;-55
2022/09/14 07:22:15;;;;;;;4.77;3.57;;;16.00;1.00;;;;;;6286411;28;20244;-55
2022/09/14 07:25:18;;;;;;;5.93;3.60;;;15.90;1.00;;;;;;6287038;28;20225;-56
2022/09/14 07:28:21;;;;;;;6.90;3.53;;;15.80;1.00;;;;;;6281895;28;20240;-55
2022/09/14 07:31:26;;;;;;;4.23;3.70;;;15.70;1.00;;;;;;6288979;28;20229;-55
2022/09/14 07:34:29;;;;;;;9.87;3.93;;;15.80;1.00;;;;;;6285240;28;20375;-56
2022/09/14 07:37:33;;;;;;;6.77;3.83;;;15.80;1.00;;;;;;6278463;28;20389;-55
2022/09/14 07:40:36;;;;;;;8.00;3.80;;;15.90;1.00;;;;;;6289434;28;20233;-56
2022/09/14 07:43:39;;;;;;;6.73;3.93;;;16.00;1.00;;;;;;6282679;28;20281;-56
2022/09/14 07:46:44;;;;;;;9.27;3.60;;;16.00;1.00;;;;;;6285699;28;20230;-56
2022/09/14 07:49:46;;;;;;;8.20;3.87;;;16.20;1.00;;;;;;6281637;28;20507;-55
2022/09/14 07:52:51;;;;;;;9.03;3.43;;;16.30;1.00;;;;;;6283869;28;20335;-55
2022/09/14 07:55:54;;;;;;;8.97;3.80;;;16.50;1.00;;;;;;6286110;28;20248;-55
2022/09/14 07:58:58;;;;;;;10.03;3.83;;;16.70;1.00;;;;;;6285607;28;20241;-56
2022/09/14 08:02:23;;;;;;;6.20;3.83;;;16.80;1.00;;;;;;6273448;28;20421;-54
2022/09/14 08:05:26;;;;;;;11.83;3.63;;;16.90;1.00;;;;;;6294455;28;20236;-54
2022/09/14 08:08:31;;;;;;;8.20;3.63;;;17.00;1.00;;;;;;6287390;28;20232;-56
2022/09/14 08:11:34;;;;;;;7.83;3.57;;;17.00;1.00;;;;;;6285918;28;20559;-56
2022/09/14 08:14:37;;;;;;;4.40;3.30;;;17.10;1.00;;;;;;6299782;28;20244;-55
2022/09/14 08:17:40;;;;;;;10.67;3.57;;;17.30;1.00;;;;;;6285036;28;20252;-56
2022/09/14 08:20:43;;;;;;;5.17;3.33;;;17.50;1.00;;;;;;6297346;28;20240;-55
2022/09/14 08:23:47;;;;;;;12.50;4.27;;;17.60;1.00;;;;;;6288100;28;20481;-55
2022/09/14 08:26:51;;;;;;;3.70;3.07;;;17.70;1.00;;;;;;6283198;28;20410;-56
2022/09/14 08:29:54;;;;;;;6.93;3.40;;;17.90;1.00;;;;;;6295363;28;20240;-56
2022/09/14 08:32:57;;;;;;;7.20;3.40;;;18.00;1.00;;;;;;6282200;28;20259;-56
2022/09/14 08:36:04;;;;;;;9.27;3.77;;;17.90;1.00;;;;;;6283375;28;20244;-55
2022/09/14 08:39:10;;;;;;;8.70;3.97;;;18.00;1.00;;;;;;6282426;28;20244;-56
2022/09/14 08:42:17;;;;;;;7.33;3.13;;;18.10;1.00;;;;;;6286993;28;20240;-55
2022/09/14 08:45:21;;;;;;;8.17;3.40;;;18.20;1.00;;;;;;6278985;28;20690;-56
2022/09/14 08:48:29;;;;;;;9.30;3.20;;;18.20;1.00;;;;;;6279610;28;20229;-55
2022/09/14 08:51:32;;;;;;;8.27;3.13;;;18.30;1.00;;;;;;6292481;28;20234;-55
2022/09/14 08:54:37;;;;;;;6.97;2.90;;;18.40;1.00;;;;;;6281121;28;20232;-56
2022/09/14 08:57:44;;;;;;;6.07;2.80;;;18.40;1.00;;;;;;6291106;28;20229;-56
2022/09/14 09:00:52;;;;;;;5.40;3.23;;;18.60;1.00;;;;;;6288235;28;20233;-55
2022/09/14 09:04:09;;;;;;;6.87;2.80;;;18.60;1.00;;;;;;6284956;28;20248;-56
2022/09/14 09:07:20;;;;;;;7.33;3.30;;;18.60;1.00;;;;;;6282343;28;20290;-56
2022/09/14 09:10:25;;;;;;;6.47;2.97;;;18.70;1.00;;;;;;6285275;28;20867;-56
2022/09/14 09:13:32;;;;;;;4.37;2.87;;;18.70;1.00;;;;;;6288020;28;20244;-56
2022/09/14 09:16:37;;;;;;;6.77;3.03;;;18.60;1.00;;;;;;6287176;28;20229;-56
2022/09/14 09:19:51;;;;;;;7.13;3.40;;;18.60;1.00;;;;;;6279612;28;20233;-55
2022/09/14 09:23:07;;;;;;;5.40;3.07;;;18.70;1.00;;;;;;6292057;28;20229;-56
2022/09/14 09:26:23;;;;;;;9.63;3.67;;;18.70;1.00;;;;;;6292144;28;20237;-56
2022/09/14 09:29:26;;;;;;;8.03;3.50;;;18.70;1.00;;;;;;6260769;28;20230;-56
2022/09/14 09:32:29;;;;;;;9.87;3.50;;;18.70;1.00;;;;;;6292442;28;20245;-55
2022/09/14 09:35:32;;;;;;;7.37;3.37;;;18.70;1.00;;;;;;6278686;28;20248;-55
2022/09/14 09:38:35;;;;;;;6.73;3.27;;;18.70;1.00;;;;;;6283159;28;20736;-56
2022/09/14 09:41:44;;;;;;;7.23;3.57;;;18.70;1.00;;;;;;6294471;28;20241;-56
2022/09/14 09:44:54;;;;;;;11.20;3.10;;;18.70;1.00;;;;;;6288061;28;20748;-55
2022/09/14 09:48:09;;;;;;;4.70;2.90;;;18.70;1.00;;;;;;6277842;28;20245;-55
2022/09/14 09:51:14;;;;;;;6.70;3.10;;;18.90;1.00;;;;;;6289461;28;20263;-56
2022/09/14 09:54:24;;;;;;;5.67;3.10;;;18.90;1.00;;;;;;6289538;28;20241;-56
2022/09/14 09:57:31;;;;;;;5.70;2.80;;;18.90;1.00;;;;;;6279430;28;20317;-56
2022/09/14 10:00:34;;;;;;;5.27;3.40;;;18.90;1.00;;;;;;6280181;28;20237;-55
2022/09/14 10:03:39;;;;;;;9.43;3.30;;;18.80;1.00;;;;;;6281824;28;20240;-55
2022/09/14 10:06:44;;;;;;;7.83;2.93;;;18.70;1.00;;;;;;6288630;28;20232;-56
2022/09/14 10:09:57;;;;;;;10.10;3.17;;;18.80;1.00;;;;;;6283290;28;20237;-56
2022/09/14 10:13:04;;;;;;;5.47;3.33;;;18.90;1.00;;;;;;6292925;28;20240;-60
2022/09/14 10:16:12;;;;;;;4.80;3.13;;;19.10;1.00;;;;;;6278884;28;20726;-55
2022/09/14 10:19:22;;;;;;;6.03;3.23;;;19.10;1.00;;;;;;6290001;28;20286;-57
2022/09/14 10:22:27;;;;;;;4.87;2.87;;;19.00;1.00;;;;;;6269629;28;20236;-56
2022/09/14 10:25:30;;;;;;;7.53;3.87;;;18.90;1.00;;;;;;6288425;28;20846;-59
2022/09/14 10:28:34;;;;;;;6.67;2.90;;;18.90;1.00;;;;;;6291432;28;20783;-55
2022/09/14 10:31:45;;;;;;;4.80;2.80;;;18.90;1.00;;;;;;6288458;28;20241;-56
2022/09/14 10:34:49;;;;;;;6.23;2.87;;;19.00;1.00;;;;;;6288731;28;20252;-55
2022/09/14 10:38:14;;;;;;;8.73;3.37;;;19.00;1.00;;;;;;6282729;28;20345;-55
2022/09/14 10:41:25;;;;;;;5.73;2.87;;;19.20;1.00;;;;;;6278650;28;20241;-55
2022/09/14 10:44:45;;;;;;;8.00;3.00;;;19.50;1.00;;;;;;6283073;28;20334;-55
2022/09/14 10:48:39;;;;;;;5.70;3.37;;;19.60;1.00;;;;;;6296880;28;20229;-55
2022/09/14 10:51:53;;;;;;;6.80;2.83;;;19.60;1.00;;;;;;6203970;28;20247;-56
2022/09/14 10:55:30;;;;;;;7.50;3.40;;;19.80;1.00;;;;;;6214860;28;20250;-56
2022/09/14 10:58:50;;;;;;;3.37;2.70;;;19.80;1.00;;;;;;6290453;28;20225;-55
2022/09/14 11:02:19;;;;;;;6.73;3.10;;;20.00;1.00;;;;;;6276823;28;20229;-55
2022/09/14 11:05:25;;;;;;;7.77;3.00;;;20.30;1.00;;;;;;6288131;28;20234;-57
2022/09/14 11:08:32;;;;;;;5.63;2.97;;;20.60;1.00;;;;;;6286483;28;20217;-56
2022/09/14 11:11:50;;;;;;;3.37;2.80;;;20.90;1.00;;;;;;6278429;28;20736;-56
2022/09/14 11:15:03;;;;;;;6.23;3.17;;;21.00;1.00;;;;;;6285664;28;20233;-57
2022/09/14 11:18:19;;;;;;;3.83;2.60;;;20.80;1.00;;;;;;6273341;28;20226;-56
2022/09/14 11:21:32;;;;;;;4.00;2.80;;;20.70;1.00;;;;;;6284977;28;20365;-56
2022/09/14 11:24:40;;;;;;;3.60;2.97;;;20.60;1.00;;;;;;6286006;28;20241;-55
2022/09/14 11:27:47;;;;;;;8.20;3.60;;;20.30;1.00;;;;;;6283210;28;20260;-56
2022/09/14 11:30:53;;;;;;;7.63;3.60;;;20.20;1.00;;;;;;6289972;28;20392;-55
2022/09/14 11:34:05;;;;;;;4.73;2.97;;;20.20;1.00;;;;;;6282409;28;20555;-54
2022/09/14 11:37:12;;;;;;;7.20;3.47;;;20.10;1.00;;;;;;6282692;28;20722;-54
2022/09/14 11:40:21;;;;;;;4.10;2.80;;;20.00;1.00;;;;;;6288677;28;20241;-60
2022/09/14 11:43:28;;;;;;;5.23;2.80;;;19.90;1.00;;;;;;6289448;28;20218;-56
2022/09/14 11:46:34;;;;;;;5.77;3.07;;;20.00;1.00;;;;;;6290297;28;20758;-56
2022/09/14 11:49:53;;;;;;;4.07;2.93;;;20.20;1.00;;;;;;6287278;28;20728;-55
2022/09/14 11:53:04;;;;;;;3.97;2.90;;;20.10;1.00;;;;;;6292078;28;20257;-56
2022/09/14 11:56:22;;;;;;;5.87;2.67;;;20.30;1.00;;;;;;6294506;28;20641;-55
2022/09/14 11:59:49;;;;;;;5.47;2.97;;;20.50;1.00;;;;;;6282949;28;20623;-55
2022/09/14 12:03:11;;;;;;;3.13;2.80;;;20.50;1.00;;;;;;6287190;28;20240;-56
2022/09/14 12:06:48;;;;;;;3.30;2.93;;;20.40;1.00;;;;;;6282591;28;20237;-56
2022/09/14 12:09:53;;;;;;;3.20;2.67;;;20.50;1.00;;;;;;6290203;28;20256;-56
2022/09/14 12:12:57;;;;;;;5.90;3.20;;;20.50;1.00;;;;;;6287097;28;20240;-56
2022/09/14 12:16:03;;;;;;;4.57;3.07;;;20.30;1.00;;;;;;6290714;28;20233;-56
2022/09/14 12:19:16;;;;;;;4.70;2.83;;;20.30;1.00;;;;;;6289239;28;20382;-59
2022/09/14 12:22:32;;;;;;;3.87;2.70;;;20.30;1.00;;;;;;6264772;28;20248;-56
2022/09/14 12:25:37;;;;;;;2.67;2.43;;;20.40;1.00;;;;;;6285579;28;20225;-55
2022/09/14 12:28:46;;;;;;;3.43;2.90;;;20.30;1.00;;;;;;6280998;28;20604;-55
2022/09/14 12:32:03;;;;;;;5.70;2.87;;;20.40;1.00;;;;;;6299599;28;20245;-54
2022/09/14 12:35:45;;;;;;;3.03;2.83;;;20.30;1.00;;;;;;6278400;28;20721;-54
2022/09/14 12:39:21;;;;;;;3.60;2.70;;;20.40;1.00;;;;;;6282942;28;20237;-55
2022/09/14 12:42:27;;;;;;;5.43;3.30;;;20.50;1.00;;;;;;6296407;28;20243;-55
2022/09/14 12:45:50;;;;;;;5.50;2.90;;;20.40;1.00;;;;;;6288561;28;20232;-56
2022/09/14 12:48:57;;;;;;;5.70;2.93;;;20.30;1.00;;;;;;6290839;28;20699;-56
2022/09/14 12:52:15;;;;;;;2.83;2.63;;;20.10;1.00;;;;;;6285103;28;20252;-56
2022/09/14 12:55:48;;;;;;;4.17;2.70;;;20.10;1.00;;;;;;6292552;28;20229;-55
2022/09/14 12:59:03;;;;;;;3.10;2.90;;;20.10;1.00;;;;;;6290238;28;20625;-55
2022/09/14 13:02:38;;;;;;;3.87;2.17;;;20.20;1.00;;;;;;6286224;28;20245;-55
2022/09/14 13:05:45;;;;;;;6.13;2.80;;;20.40;1.00;;;;;;6295708;28;20234;-56
2022/09/14 13:08:50;;;;;;;7.13;3.00;;;20.60;1.00;;;;;;6297206;28;20240;-56
2022/09/14 13:11:57;;;;;;;5.07;3.00;;;20.60;1.00;;;;;;6286916;28;20317;-56
2022/09/14 13:15:03;;;;;;;3.83;2.70;;;20.70;1.00;;;;;;6290893;28;20606;-56
2022/09/14 13:18:29;;;;;;;3.67;2.90;;;20.90;1.00;;;;;;6291722;28;20228;-56
2022/09/14 13:21:31;;;;;;;5.87;3.27;;;20.80;1.00;;;;;;6280039;28;20297;-57
2022/09/14 13:24:42;;;;;;;8.97;3.20;;;20.70;1.00;;;;;;6294478;28;20812;-57
2022/09/14 13:27:49;;;;;;;4.27;2.77;;;20.60;1.00;;;;;;6286918;28;20253;-57
2022/09/14 13:30:56;;;;;;;3.27;3.00;;;20.40;1.00;;;;;;6288468;28;20384;-56
2022/09/14 13:34:01;;;;;;;5.63;3.10;;;20.40;1.00;;;;;;6281411;28;20238;-57
2022/09/14 13:37:06;;;;;;;5.07;3.37;;;20.40;1.00;;;;;;6286204;28;20405;-57
2022/09/14 13:40:09;;;;;;;4.87;2.70;;;20.30;1.00;;;;;;6287930;28;20613;-56
2022/09/14 13:43:15;;;;;;;3.07;2.60;;;20.10;1.00;;;;;;6294242;28;20771;-58
2022/09/14 13:46:18;;;;;;;6.00;3.03;;;20.10;1.00;;;;;;6297937;28;20871;-56
2022/09/14 13:49:23;;;;;;;4.97;2.90;;;20.00;1.00;;;;;;6280042;28;20229;-55
2022/09/14 13:52:34;;;;;;;4.13;2.83;;;20.00;1.00;;;;;;6291329;28;20229;-55
2022/09/14 13:55:57;;;;;;;4.93;3.17;;;19.90;1.00;;;;;;6286507;28;20244;-59
2022/09/14 13:59:20;;;;;;;2.83;2.63;;;19.80;1.00;;;;;;6279573;28;20241;-56
2022/09/14 14:02:23;;;;;;;7.97;3.47;;;19.80;1.00;;;;;;6287494;28;20246;-59
2022/09/14 14:05:29;;;;;;;4.73;3.17;;;19.80;1.00;;;;;;6306792;28;20276;-61
2022/09/14 14:08:35;;;;;;;3.70;2.40;;;19.70;1.00;;;;;;6285719;28;20907;-56
2022/09/14 14:11:41;;;;;;;3.70;2.60;;;19.70;1.00;;;;;;6292153;28;20233;-56
2022/09/14 14:14:53;;;;;;;4.10;2.70;;;19.60;1.00;;;;;;6291131;28;20592;-56
2022/09/14 14:17:56;;;;;;;3.73;2.63;;;19.60;1.00;;;;;;6288278;28;20237;-55
2022/09/14 14:21:11;;;;;;;4.17;3.10;;;19.60;1.00;;;;;;6288013;28;20241;-57
2022/09/14 14:24:26;;;;;;;4.87;2.80;;;19.60;1.00;;;;;;6285393;28;20465;-55
2022/09/14 14:27:31;;;;;;;3.67;3.07;;;19.50;1.00;;;;;;6284104;28;20708;-55
2022/09/14 14:30:40;;;;;;;4.70;2.67;;;19.50;1.00;;;;;;6288843;28;20230;-58
2022/09/14 14:33:47;;;;;;;4.83;2.60;;;19.50;1.00;;;;;;6281613;28;20237;-56
2022/09/14 14:36:50;;;;;;;2.97;2.60;;;19.30;1.00;;;;;;6283232;28;20249;-57
2022/09/14 14:39:53;;;;;;;8.17;3.20;;;19.30;1.00;;;;;;6286019;28;20233;-56
2022/09/14 14:42:58;;;;;;;2.80;2.40;;;19.10;1.00;;;;;;6283453;28;20744;-56
2022/09/14 14:46:02;;;;;;;2.77;2.43;;;19.00;1.00;;;;;;6287843;28;20236;-57
2022/09/14 14:49:05;;;;;;;4.57;2.93;;;19.00;1.00;;;;;;6279605;28;20248;-56
2022/09/14 14:52:10;;;;;;;2.77;2.57;;;18.90;1.00;;;;;;6280640;28;20236;-56
2022/09/14 14:55:13;;;;;;;3.43;2.60;;;18.80;1.00;;;;;;6286723;28;20485;-56
2022/09/14 14:58:18;;;;;;;3.37;3.07;;;18.80;1.00;;;;;;6285111;28;20768;-56
2022/09/14 15:01:22;;;;;;;3.57;2.67;;;18.80;1.00;;;;;;6283396;28;20244;-56
2022/09/14 15:04:25;;;;;;;3.80;2.73;;;18.70;1.00;;;;;;6286980;28;20264;-56
2022/09/14 15:07:28;;;;;;;3.20;2.70;;;18.70;1.00;;;;;;6282419;28;20336;-56
2022/09/14 15:10:31;;;;;;;3.90;2.70;;;18.70;1.00;;;;;;6281363;28;20233;-61
2022/09/14 15:13:34;;;;;;;9.10;3.23;;;18.70;1.00;;;;;;6289615;28;20606;-59
2022/09/14 15:16:39;;;;;;;2.93;2.73;;;18.60;1.00;;;;;;6282323;28;20259;-56
2022/09/14 15:19:42;;;;;;;2.83;2.67;;;18.50;1.00;;;;;;6290380;28;20270;-57
2022/09/14 15:22:45;;;;;;;7.23;2.90;;;18.50;1.00;;;;;;6289427;28;20253;-55
2022/09/14 15:25:51;;;;;;;3.33;2.40;;;18.50;1.00;;;;;;6290527;28;20298;-56
2022/09/14 15:28:54;;;;;;;4.50;2.70;;;18.40;1.00;;;;;;6291924;28;20325;-55
2022/09/14 15:31:58;;;;;;;8.73;2.80;;;18.40;1.00;;;;;;6295078;28;20232;-56
2022/09/14 15:35:01;;;;;;;3.47;2.80;;;18.40;1.00;;;;;;6290449;28;20317;-56
2022/09/14 15:38:04;;;;;;;2.80;2.60;;;18.40;1.00;;;;;;6285966;28;20233;-57
2022/09/14 15:41:11;;;;;;;5.10;2.77;;;18.40;1.00;;;;;;6262004;28;20233;-55
2022/09/14 15:44:14;;;;;;;3.50;2.53;;;18.30;1.00;;;;;;6289123;28;20750;-55
2022/09/14 15:47:18;;;;;;;4.80;2.90;;;18.30;1.00;;;;;;6288668;28;20244;-56
2022/09/14 15:50:21;;;;;;;4.13;2.77;;;18.20;1.00;;;;;;6291089;28;20229;-57
2022/09/14 15:53:24;;;;;;;3.10;2.80;;;18.20;1.00;;;;;;6292240;28;20229;-56
2022/09/14 15:56:27;;;;;;;3.53;2.80;;;18.20;1.00;;;;;;6297368;28;20233;-55
2022/09/14 15:59:30;;;;;;;3.17;2.60;;;18.20;1.00;;;;;;6290873;28;20236;-56
2022/09/14 16:02:35;;;;;;;2.60;2.50;;;18.20;1.00;;;;;;6286619;28;20316;-55
2022/09/14 16:05:38;;;;;;;3.70;2.80;;;18.20;1.00;;;;;;6291846;28;20820;-56
2022/09/14 16:08:41;;;;;;;2.67;2.47;;;18.20;1.00;;;;;;6288818;28;20248;-57
2022/09/14 16:11:44;;;;;;;4.27;2.73;;;18.10;1.00;;;;;;6294636;28;20241;-55
2022/09/14 16:14:47;;;;;;;2.83;2.63;;;18.10;1.00;;;;;;6298023;28;20236;-57
2022/09/14 16:17:54;;;;;;;2.50;2.30;;;18.10;1.00;;;;;;6291927;28;20236;-56
2022/09/14 16:21:02;;;;;;;2.73;2.40;;;18.10;1.00;;;;;;6293402;28;20241;-56
2022/09/14 16:24:07;;;;;;;2.83;2.60;;;18.00;1.00;;;;;;6291501;28;20231;-56
2022/09/14 16:27:09;;;;;;;3.23;2.57;;;18.00;1.00;;;;;;6297712;28;20373;-55